createdAt,value
2022-11-30T00:01:18.345Z,102236.31
2022-11-30T00:03:54.527Z,102232.09
2022-11-30T00:06:27.511Z,102238.72
2022-11-30T00:09:00.263Z,102250.00
2022-11-30T00:11:34.081Z,102244.03
2022-11-30T00:14:08.409Z,102241.97
2022-11-30T00:16:41.424Z,102249.38
2022-11-30T00:19:14.335Z,102238.91
2022-11-30T00:21:47.716Z,102237.63
2022-11-30T00:24:20.503Z,102247.47
2022-11-30T00:26:53.480Z,102238.25
2022-11-30T00:29:27.425Z,102236.47
2022-11-30T00:32:00.266Z,102237.25
2022-11-30T00:34:33.225Z,102234.72
2022-11-30T00:37:06.022Z,102234.09
2022-11-30T00:39:39.048Z,102224.28
2022-11-30T00:42:12.359Z,102233.09
2022-11-30T00:44:46.917Z,102232.47
2022-11-30T00:47:20.202Z,102227.31
2022-11-30T00:49:53.498Z,102239.56
2022-11-30T00:52:26.427Z,102230.53
2022-11-30T00:55:02.794Z,102226.38
2022-11-30T00:57:37.178Z,102234.88
2022-11-30T01:00:13.087Z,102241.78
2022-11-30T01:02:46.266Z,102239.22
2022-11-30T01:05:19.237Z,102227.81
2022-11-30T01:07:52.331Z,102228.41
2022-11-30T01:10:25.128Z,102232.47
2022-11-30T01:12:58.295Z,102230.84
2022-11-30T01:15:36.656Z,102224.09
2022-11-30T01:18:10.140Z,102225.22
2022-11-30T01:20:43.892Z,102228.44
2022-11-30T01:23:16.928Z,102228.63
2022-11-30T01:25:54.735Z,102230.06
2022-11-30T01:28:27.633Z,102230.25
2022-11-30T01:31:02.673Z,102234.13
2022-11-30T01:33:36.675Z,102237.31
2022-11-30T01:36:13.466Z,102231.84
2022-11-30T01:38:49.693Z,102230.25
2022-11-30T01:41:24.664Z,102242.50
2022-11-30T01:43:59.699Z,102239.09
2022-11-30T01:46:39.592Z,102242.78
2022-11-30T01:49:18.206Z,102242.31
2022-11-30T01:51:54.904Z,102246.63
2022-11-30T01:54:34.298Z,102241.81
2022-11-30T01:57:12.420Z,102248.44
2022-11-30T01:59:45.572Z,102247.28
2022-11-30T02:02:26.250Z,102253.44
2022-11-30T02:04:59.135Z,102249.56
2022-11-30T02:07:32.069Z,102256.63
2022-11-30T02:10:06.268Z,102253.56
2022-11-30T02:12:46.255Z,102254.06
2022-11-30T02:15:23.926Z,102243.94
2022-11-30T02:18:06.900Z,102254.72
2022-11-30T02:21:02.210Z,102249.56
2022-11-30T02:23:51.950Z,102247.34
2022-11-30T02:26:40.736Z,102254.09
2022-11-30T02:29:20.411Z,102258.91
2022-11-30T02:32:02.717Z,102249.94
2022-11-30T02:34:38.267Z,102256.53
2022-11-30T02:37:15.069Z,102258.59
2022-11-30T02:39:48.238Z,102248.63
2022-11-30T02:42:21.317Z,102252.81
2022-11-30T02:44:55.497Z,102253.47
2022-11-30T02:47:36.232Z,102245.25
2022-11-30T02:50:16.026Z,102245.59
2022-11-30T02:52:49.781Z,102246.69
2022-11-30T02:55:23.035Z,102246.53
2022-11-30T02:57:55.739Z,102245.75
2022-11-30T03:00:30.396Z,102254.91
2022-11-30T03:03:04.557Z,102245.09
2022-11-30T03:05:38.203Z,102243.78
2022-11-30T03:08:11.152Z,102243.00
2022-11-30T03:10:43.816Z,102249.25
2022-11-30T03:13:16.808Z,102248.47
2022-11-30T03:15:50.743Z,102260.88
2022-11-30T03:18:23.793Z,102254.44
2022-11-30T03:20:56.623Z,102252.97
2022-11-30T03:23:30.254Z,102255.56
2022-11-30T03:26:03.993Z,102256.84
2022-11-30T03:28:37.848Z,102257.34
2022-11-30T03:31:13.754Z,102253.47
2022-11-30T03:33:46.658Z,102260.38
2022-11-30T03:36:19.545Z,102261.53
2022-11-30T03:38:52.938Z,102265.06
2022-11-30T03:41:25.681Z,102267.78
2022-11-30T03:43:58.394Z,102263.91
2022-11-30T03:46:34.213Z,102273.09
2022-11-30T03:49:07.310Z,102270.53
2022-11-30T03:51:40.080Z,102270.66
2022-11-30T03:54:13.063Z,102268.75
2022-11-30T03:56:45.806Z,102269.72
2022-11-30T03:59:18.581Z,102274.22
2022-11-30T04:01:52.715Z,102277.44
2022-11-30T04:04:25.611Z,102278.53
2022-11-30T04:06:58.790Z,102275.66
2022-11-30T04:09:31.927Z,102279.03
2022-11-30T04:12:05.403Z,102278.06
2022-11-30T04:14:38.259Z,102287.09
2022-11-30T04:17:12.276Z,102278.72
2022-11-30T04:19:44.979Z,102275.81
2022-11-30T04:22:17.838Z,102288.53
2022-11-30T04:24:50.772Z,102281.47
2022-11-30T04:27:23.602Z,102284.34
2022-11-30T04:29:58.326Z,102290.81
2022-11-30T04:32:32.625Z,102289.03
2022-11-30T04:35:06.126Z,102294.00
2022-11-30T04:37:39.125Z,102285.16
2022-11-30T04:40:12.334Z,102292.72
2022-11-30T04:42:45.260Z,102293.22
2022-11-30T04:45:18.142Z,102291.75
2022-11-30T04:47:52.394Z,102293.19
2022-11-30T04:50:25.764Z,102301.91
2022-11-30T04:52:59.195Z,102297.22
2022-11-30T04:55:32.584Z,102294.31
2022-11-30T04:58:05.427Z,102298.97
2022-11-30T05:00:41.924Z,102295.31
2022-11-30T05:03:16.159Z,102290.78
2022-11-30T05:05:49.662Z,102306.38
2022-11-30T05:08:22.465Z,102293.03
2022-11-30T05:10:55.851Z,102297.03
2022-11-30T05:13:28.792Z,102296.91
2022-11-30T05:16:01.523Z,102295.63
2022-11-30T05:18:36.897Z,102289.19
2022-11-30T05:21:09.777Z,102283.72
2022-11-30T05:23:42.708Z,102290.78
2022-11-30T05:26:15.715Z,102288.56
2022-11-30T05:28:48.637Z,102294.03
2022-11-30T05:31:21.440Z,102293.84
2022-11-30T05:33:56.095Z,102299.16
2022-11-30T05:36:29.502Z,102299.78
2022-11-30T05:39:02.328Z,102309.75
2022-11-30T05:41:35.105Z,102312.63
2022-11-30T05:44:07.942Z,102306.84
2022-11-30T05:46:42.420Z,102306.69
2022-11-30T05:49:16.494Z,102305.38
2022-11-30T05:51:49.856Z,102301.84
2022-11-30T05:54:22.814Z,102304.91
2022-11-30T05:56:55.561Z,102308.75
2022-11-30T05:59:28.502Z,102313.44
2022-11-30T06:02:01.133Z,102318.38
2022-11-30T06:04:35.792Z,102316.44
2022-11-30T06:07:12.609Z,102308.91
2022-11-30T06:09:45.398Z,102317.56
2022-11-30T06:12:18.346Z,102317.09
2022-11-30T06:14:51.159Z,102326.75
2022-11-30T06:17:23.921Z,102321.22
2022-11-30T06:19:58.072Z,102319.63
2022-11-30T06:22:31.561Z,102322.53
2022-11-30T06:25:04.800Z,102325.09
2022-11-30T06:27:37.735Z,102318.03
2022-11-30T06:30:11.682Z,102318.66
2022-11-30T06:32:46.372Z,102316.72
2022-11-30T06:35:20.835Z,102314.34
2022-11-30T06:37:54.765Z,102313.69
2022-11-30T06:40:28.223Z,102320.72
2022-11-30T06:43:01.360Z,102329.25
2022-11-30T06:45:34.666Z,102331.78
2022-11-30T06:48:07.671Z,102334.53
2022-11-30T06:50:48.412Z,102336.97
2022-11-30T06:53:23.401Z,102334.22
2022-11-30T06:55:56.309Z,102331.19
2022-11-30T06:58:29.414Z,102344.16
2022-11-30T07:01:02.234Z,102340.63
2022-11-30T07:03:35.603Z,102337.25
2022-11-30T07:06:11.074Z,102341.28
2022-11-30T07:08:45.540Z,102338.69
2022-11-30T07:11:18.492Z,102345.53
2022-11-30T07:13:51.457Z,102346.38
2022-11-30T07:16:24.353Z,102352.19
2022-11-30T07:18:57.308Z,102349.63
2022-11-30T07:21:31.548Z,102364.38
2022-11-30T07:24:21.927Z,102364.03
2022-11-30T07:26:54.777Z,102365.00
2022-11-30T07:29:28.080Z,102366.66
2022-11-30T07:32:01.119Z,102368.38
2022-11-30T07:34:33.956Z,102378.19
2022-11-30T07:37:08.245Z,102387.69
2022-11-30T07:39:41.072Z,102388.63
2022-11-30T07:42:14.741Z,102390.22
2022-11-30T07:44:51.442Z,102392.31
2022-11-30T07:47:26.715Z,102389.91
2022-11-30T07:49:59.546Z,102398.63
2022-11-30T07:52:33.912Z,102398.09
2022-11-30T07:55:08.716Z,102398.91
2022-11-30T07:57:41.441Z,102401.16
2022-11-30T08:00:18.041Z,102405.97
2022-11-30T08:02:51.287Z,102404.56
2022-11-30T08:05:24.113Z,102407.28
2022-11-30T08:07:58.318Z,102404.25
2022-11-30T08:10:32.148Z,102404.72
2022-11-30T08:13:05.008Z,102406.22
2022-11-30T08:15:38.287Z,102405.84
2022-11-30T08:18:11.309Z,102415.53
2022-11-30T08:20:49.698Z,102412.34
2022-11-30T08:23:24.161Z,102419.06
2022-11-30T08:25:57.140Z,102428.38
2022-11-30T08:28:30.334Z,102426.00
2022-11-30T08:31:03.991Z,102425.22
2022-11-30T08:33:38.877Z,102421.03
2022-11-30T08:36:14.160Z,102426.00
2022-11-30T08:38:49.877Z,102437.78
2022-11-30T08:41:23.446Z,102442.63
2022-11-30T08:43:56.603Z,102443.25
2022-11-30T08:49:24.512Z,102449.03
2022-11-30T08:54:52.173Z,102451.13
2022-11-30T08:57:27.893Z,102446.00
2022-11-30T09:00:00.633Z,102446.81
2022-11-30T09:02:33.377Z,102440.91
2022-11-30T09:05:07.123Z,102452.63
2022-11-30T09:07:39.890Z,102455.38
2022-11-30T09:10:14.439Z,102450.88
2022-11-30T09:12:47.089Z,102452.63
2022-11-30T09:15:19.962Z,102454.44
2022-11-30T09:17:52.809Z,102458.28
2022-11-30T09:20:25.582Z,102457.81
2022-11-30T09:23:00.572Z,102458.44
2022-11-30T09:25:34.662Z,102466.16
2022-11-30T09:28:12.179Z,102462.63
2022-11-30T09:30:45.237Z,102468.78
2022-11-30T09:33:18.156Z,102463.56
2022-11-30T09:35:57.564Z,102467.78
2022-11-30T09:38:30.587Z,102471.63
2022-11-30T09:41:12.797Z,102467.78
2022-11-30T09:43:52.665Z,102472.31
2022-11-30T09:46:31.628Z,102466.53
2022-11-30T09:49:06.861Z,102467.50
2022-11-30T09:51:45.547Z,102470.72
2022-11-30T09:54:22.375Z,102476.88
2022-11-30T09:56:56.738Z,102473.00
2022-11-30T09:59:32.782Z,102464.63
2022-11-30T10:02:16.520Z,102469.94
2022-11-30T10:04:49.736Z,102470.28
2022-11-30T10:07:41.077Z,102468.81
2022-11-30T10:10:34.011Z,102468.84
2022-11-30T10:13:27.971Z,102465.66
2022-11-30T10:16:10.917Z,102473.06
2022-11-30T10:19:01.039Z,102471.94
2022-11-30T10:21:46.632Z,102470.66
2022-11-30T10:24:33.340Z,102471.50
2022-11-30T10:27:16.726Z,102471.41
2022-11-30T10:29:51.400Z,102473.50
2022-11-30T10:32:33.595Z,102461.09
2022-11-30T10:35:19.695Z,102464.47
2022-11-30T10:37:54.761Z,102467.38
2022-11-30T10:40:38.936Z,102470.59
2022-11-30T10:43:22.780Z,102465.91
2022-11-30T10:45:57.257Z,102467.53
2022-11-30T10:48:38.482Z,102460.75
2022-11-30T10:51:13.344Z,102468.81
2022-11-30T10:53:46.900Z,102460.09
2022-11-30T10:56:19.816Z,102463.31
2022-11-30T10:58:57.916Z,102471.22
2022-11-30T11:01:35.089Z,102463.50
2022-11-30T11:04:17.225Z,102458.16
2022-11-30T11:06:53.564Z,102464.28
2022-11-30T11:09:37.942Z,102458.31
2022-11-30T11:12:17.378Z,102463.00
2022-11-30T11:14:50.467Z,102462.00
2022-11-30T11:17:26.335Z,102463.94
2022-11-30T11:19:59.882Z,102464.09
2022-11-30T11:22:32.721Z,102470.41
2022-11-30T11:25:17.394Z,102463.09
2022-11-30T11:27:53.591Z,102472.41
2022-11-30T11:30:34.469Z,102463.13
2022-11-30T11:33:21.336Z,102458.38
2022-11-30T11:35:55.960Z,102453.84
2022-11-30T11:38:30.772Z,102456.25
2022-11-30T11:41:06.443Z,102456.25
2022-11-30T11:43:59.526Z,102456.72
2022-11-30T11:46:34.113Z,102453.19
2022-11-30T11:49:20.097Z,102449.00
2022-11-30T11:52:02.032Z,102456.16
2022-11-30T11:54:39.528Z,102451.25
2022-11-30T11:57:15.439Z,102455.41
2022-11-30T11:59:55.323Z,102447.00
2022-11-30T12:02:35.913Z,102439.81
2022-11-30T12:05:16.535Z,102445.75
2022-11-30T12:08:02.335Z,102448.22
2022-11-30T12:10:54.646Z,102436.94
2022-11-30T12:13:32.498Z,102445.66
2022-11-30T12:16:18.634Z,102449.06
2022-11-30T12:18:59.546Z,102452.00
2022-11-30T12:21:47.078Z,102447.31
2022-11-30T12:24:36.419Z,102452.34
2022-11-30T12:27:19.833Z,102453.75
2022-11-30T12:30:06.201Z,102459.88
2022-11-30T12:32:57.189Z,102457.78
2022-11-30T12:35:38.095Z,102458.56
2022-11-30T12:38:22.356Z,102457.28
2022-11-30T12:41:05.679Z,102444.50
2022-11-30T12:43:48.669Z,102455.75
2022-11-30T12:46:27.211Z,102460.13
2022-11-30T12:49:21.071Z,102457.88
2022-11-30T12:52:04.351Z,102463.25
2022-11-30T12:54:42.622Z,102458.09
2022-11-30T12:57:21.391Z,102466.31
2022-11-30T13:00:04.640Z,102451.88
2022-11-30T13:02:47.306Z,102456.50
2022-11-30T13:05:27.213Z,102462.47
2022-11-30T13:08:06.751Z,102465.03
2022-11-30T13:10:44.082Z,102467.09
2022-11-30T13:13:22.160Z,102468.91
2022-11-30T13:15:56.744Z,102460.72
2022-11-30T13:18:30.557Z,102468.50
2022-11-30T13:21:07.347Z,102466.22
2022-11-30T13:23:45.010Z,102464.94
2022-11-30T13:26:24.904Z,102467.69
2022-11-30T13:29:18.617Z,102469.19
2022-11-30T13:31:56.796Z,102467.53
2022-11-30T13:34:31.085Z,102473.84
2022-11-30T13:37:07.602Z,102472.72
2022-11-30T13:39:48.937Z,102465.28
2022-11-30T13:42:34.196Z,102475.66
2022-11-30T13:45:30.332Z,102468.28
2022-11-30T13:48:19.634Z,102480.53
2022-11-30T13:50:52.793Z,102477.44
2022-11-30T13:53:27.793Z,102479.41
2022-11-30T13:56:28.932Z,102486.75
2022-11-30T13:59:36.256Z,102484.69
2022-11-30T14:02:58.560Z,102486.03
2022-11-30T14:05:41.406Z,102482.53
2022-11-30T14:08:32.344Z,102477.19
2022-11-30T14:11:38.362Z,102487.22
2022-11-30T14:14:45.772Z,102482.53
2022-11-30T14:17:25.048Z,102486.88
2022-11-30T14:20:01.745Z,102487.88
2022-11-30T14:22:36.378Z,102488.69
2022-11-30T14:25:14.196Z,102495.94
2022-11-30T14:27:48.930Z,102496.78
2022-11-30T14:30:24.559Z,102491.63
2022-11-30T14:33:02.642Z,102488.91
2022-11-30T14:35:40.144Z,102498.78
2022-11-30T14:38:25.494Z,102499.44
2022-11-30T14:40:59.462Z,102494.44
2022-11-30T14:43:32.656Z,102504.06
2022-11-30T14:46:11.634Z,102503.25
2022-11-30T14:49:05.265Z,102503.25
2022-11-30T14:51:40.825Z,102494.56
2022-11-30T14:54:27.678Z,102503.13
2022-11-30T14:57:03.736Z,102494.56
2022-11-30T14:59:47.972Z,102506.22
2022-11-30T15:02:29.709Z,102509.59
2022-11-30T15:05:02.830Z,102508.97
2022-11-30T15:07:37.593Z,102512.06
2022-11-30T15:10:17.228Z,102518.22
2022-11-30T15:12:50.296Z,102511.47
2022-11-30T15:15:23.452Z,102508.56
2022-11-30T15:17:58.930Z,102507.75
2022-11-30T15:20:38.850Z,102506.66
2022-11-30T15:23:14.485Z,102503.44
2022-11-30T15:25:51.837Z,102511.03
2022-11-30T15:28:28.936Z,102509.25
2022-11-30T15:31:06.584Z,102503.75
2022-11-30T15:33:44.057Z,102507.50
2022-11-30T15:36:32.048Z,102511.34
2022-11-30T15:39:08.588Z,102518.31
2022-11-30T15:41:42.962Z,102517.50
2022-11-30T15:44:26.799Z,102520.59
2022-11-30T15:47:09.495Z,102526.25
2022-11-30T15:49:55.342Z,102522.22
2022-11-30T15:52:30.071Z,102527.25
2022-11-30T15:55:05.282Z,102525.47
2022-11-30T15:58:01.504Z,102523.56
2022-11-30T16:00:35.003Z,102528.56
2022-11-30T16:03:12.578Z,102524.97
2022-11-30T16:05:58.170Z,102527.13
2022-11-30T16:08:34.944Z,102541.13
2022-11-30T16:11:08.478Z,102537.09
2022-11-30T16:13:42.833Z,102537.56
2022-11-30T16:16:21.054Z,102535.34
2022-11-30T16:18:53.825Z,102536.78
2022-11-30T16:21:26.748Z,102538.56
2022-11-30T16:23:59.627Z,102539.50
2022-11-30T16:26:50.434Z,102543.69
2022-11-30T16:29:25.487Z,102547.13
2022-11-30T16:31:58.443Z,102541.47
2022-11-30T16:34:31.511Z,102547.13
2022-11-30T16:37:05.119Z,102544.69
2022-11-30T16:39:37.915Z,102549.06
2022-11-30T16:42:13.222Z,102552.41
2022-11-30T16:44:47.377Z,102556.44
2022-11-30T16:47:20.141Z,102555.63
2022-11-30T16:49:52.831Z,102558.06
2022-11-30T16:52:25.558Z,102563.38
2022-11-30T16:54:58.427Z,102569.81
2022-11-30T16:57:31.307Z,102565.47
2022-11-30T17:00:07.116Z,102577.22
2022-11-30T17:02:43.955Z,102575.63
2022-11-30T17:05:20.408Z,102578.69
2022-11-30T17:07:54.611Z,102574.50
2022-11-30T17:10:28.104Z,102580.16
2022-11-30T17:13:01.287Z,102583.22
2022-11-30T17:15:35.463Z,102581.28
2022-11-30T17:18:11.618Z,102581.59
2022-11-30T17:20:44.867Z,102582.56
2022-11-30T17:23:17.792Z,102581.28
2022-11-30T17:25:50.630Z,102594.47
2022-11-30T17:28:23.637Z,102600.13
2022-11-30T17:30:57.801Z,102591.75
2022-11-30T17:33:32.787Z,102599.34
2022-11-30T17:36:07.959Z,102594.81
2022-11-30T17:38:44.234Z,102598.69
2022-11-30T17:41:20.012Z,102597.56
2022-11-30T17:43:53.271Z,102602.56
2022-11-30T17:46:27.746Z,102605.16
2022-11-30T17:49:00.764Z,102603.03
2022-11-30T17:51:33.643Z,102613.03
2022-11-30T17:54:06.876Z,102612.72
2022-11-30T17:56:40.933Z,102616.56
2022-11-30T17:59:13.689Z,102615.13
2022-11-30T18:01:47.931Z,102617.06
2022-11-30T18:04:20.903Z,102621.06
2022-11-30T18:06:53.528Z,102621.41
2022-11-30T18:09:28.810Z,102628.34
2022-11-30T18:12:03.797Z,102628.66
2022-11-30T18:14:37.035Z,102632.03
2022-11-30T18:17:11.280Z,102635.44
2022-11-30T18:19:44.193Z,102637.69
2022-11-30T18:22:17.120Z,102638.31
2022-11-30T18:24:50.431Z,102638.31
2022-11-30T18:27:24.041Z,102640.09
2022-11-30T18:29:57.300Z,102637.81
2022-11-30T18:32:31.966Z,102647.16
2022-11-30T18:35:05.295Z,102643.31
2022-11-30T18:37:38.233Z,102632.63
2022-11-30T18:40:13.250Z,102636.34
2022-11-30T18:42:48.623Z,102639.38
2022-11-30T18:45:21.612Z,102638.88
2022-11-30T18:47:56.163Z,102642.59
2022-11-30T18:50:31.089Z,102641.75
2022-11-30T18:53:06.888Z,102644.00
2022-11-30T18:55:39.965Z,102645.91
2022-11-30T18:58:13.022Z,102648.16
2022-11-30T19:00:48.321Z,102653.28
2022-11-30T19:03:24.449Z,102648.41
2022-11-30T19:05:57.539Z,102659.19
2022-11-30T19:08:30.817Z,102651.44
2022-11-30T19:11:05.844Z,102656.91
2022-11-30T19:13:38.945Z,102655.56
2022-11-30T19:16:13.103Z,102665.69
2022-11-30T19:18:47.406Z,102669.84
2022-11-30T19:21:25.292Z,102668.22
2022-11-30T19:24:01.529Z,102668.03
2022-11-30T19:26:40.132Z,102667.34
2022-11-30T19:29:13.751Z,102665.72
2022-11-30T19:31:47.047Z,102672.69
2022-11-30T19:34:21.431Z,102675.25
2022-11-30T19:36:54.506Z,102682.78
2022-11-30T19:39:28.604Z,102680.16
2022-11-30T19:42:01.866Z,102679.03
2022-11-30T19:44:39.095Z,102682.53
2022-11-30T19:47:12.185Z,102682.03
2022-11-30T19:49:53.109Z,102692.66
2022-11-30T19:52:26.592Z,102689.22
2022-11-30T19:54:59.911Z,102689.13
2022-11-30T19:57:33.035Z,102687.13
2022-11-30T20:00:07.563Z,102698.97
2022-11-30T20:02:48.219Z,102693.34
2022-11-30T20:05:22.616Z,102686.88
2022-11-30T20:07:56.270Z,102699.41
2022-11-30T20:10:32.113Z,102703.56
2022-11-30T20:13:05.370Z,102703.25
2022-11-30T20:15:39.640Z,102698.84
2022-11-30T20:18:14.603Z,102697.56
2022-11-30T20:20:55.108Z,102697.34
2022-11-30T20:23:30.315Z,102704.00
2022-11-30T20:26:17.061Z,102703.81
2022-11-30T20:28:51.980Z,102712.13
2022-11-30T20:31:29.158Z,102713.25
2022-11-30T20:34:02.586Z,102722.66
2022-11-30T20:36:37.585Z,102713.34
2022-11-30T20:39:14.487Z,102721.22
2022-11-30T20:41:47.814Z,102722.56
2022-11-30T20:44:21.346Z,102726.69
2022-11-30T20:46:56.767Z,102723.56
2022-11-30T20:49:32.142Z,102725.22
2022-11-30T20:52:06.869Z,102724.28
2022-11-30T20:54:39.671Z,102719.94
2022-11-30T20:57:13.903Z,102728.44
2022-11-30T20:59:47.025Z,102726.84
2022-11-30T21:02:19.907Z,102721.13
2022-11-30T21:04:54.212Z,102724.28
2022-11-30T21:07:28.879Z,102719.75
2022-11-30T21:10:01.712Z,102720.97
2022-11-30T21:12:34.492Z,102724.19
2022-11-30T21:15:09.780Z,102720.25
2022-11-30T21:17:42.516Z,102720.34
2022-11-30T21:20:15.295Z,102720.25
2022-11-30T21:22:49.503Z,102719.94
2022-11-30T21:25:22.514Z,102722.47
2022-11-30T21:27:55.073Z,102721.69
2022-11-30T21:30:27.804Z,102721.69
2022-11-30T21:33:03.342Z,102728.69
2022-11-30T21:35:36.318Z,102725.66
2022-11-30T21:38:10.452Z,102732.22
2022-11-30T21:40:43.911Z,102725.66
2022-11-30T21:43:16.693Z,102725.66
2022-11-30T21:45:57.849Z,102731.69
2022-11-30T21:48:32.542Z,102729.59
2022-11-30T21:51:07.646Z,102725.25
2022-11-30T21:53:44.038Z,102729.91
2022-11-30T21:56:19.562Z,102726.84
2022-11-30T21:58:53.422Z,102732.53
2022-11-30T22:01:29.110Z,102729.09
2022-11-30T22:04:02.976Z,102731.50
2022-11-30T22:06:37.652Z,102741.53
2022-11-30T22:09:14.950Z,102745.75
2022-11-30T22:11:50.090Z,102743.25
2022-11-30T22:14:23.449Z,102735.75
2022-11-30T22:16:57.118Z,102738.50
2022-11-30T22:19:30.040Z,102741.31
2022-11-30T22:22:02.851Z,102733.75
2022-11-30T22:24:37.053Z,102739.22
2022-11-30T22:27:09.871Z,102738.41
2022-11-30T22:29:42.645Z,102733.63
2022-11-30T22:32:15.437Z,102729.19
2022-11-30T22:34:48.201Z,102733.75
2022-11-30T22:37:21.049Z,102728.88
2022-11-30T22:39:55.107Z,102735.75
2022-11-30T22:42:27.975Z,102731.91
2022-11-30T22:45:00.705Z,102728.28
2022-11-30T22:47:33.865Z,102734.13
2022-11-30T22:50:07.900Z,102727.88
2022-11-30T22:53:02.051Z,102737.97
2022-11-30T22:55:48.241Z,102743.44
2022-11-30T22:58:21.615Z,102737.19
2022-11-30T23:00:54.798Z,102733.09
2022-11-30T23:03:31.399Z,102735.97
2022-11-30T23:06:04.625Z,102743.03
2022-11-30T23:08:41.583Z,102742.59
2022-11-30T23:11:19.178Z,102740.59
2022-11-30T23:13:52.916Z,102745.66
2022-11-30T23:16:26.598Z,102741.00
2022-11-30T23:19:01.572Z,102738.16
2022-11-30T23:21:41.078Z,102744.84
2022-11-30T23:24:17.073Z,102736.94
2022-11-30T23:26:51.496Z,102742.31
2022-11-30T23:29:24.768Z,102741.56
2022-11-30T23:31:57.873Z,102737.63
2022-11-30T23:34:30.854Z,102740.88
2022-11-30T23:37:03.643Z,102747.44
2022-11-30T23:39:36.535Z,102750.25
2022-11-30T23:42:10.386Z,102743.38
2022-11-30T23:44:43.240Z,102740.75
2022-11-30T23:47:18.441Z,102741.63
2022-11-30T23:49:51.922Z,102743.53
2022-11-30T23:52:25.031Z,102739.72
2022-11-30T23:55:00.368Z,102736.47
2022-11-30T23:57:35.156Z,102728.06
